NVA1001 SASA-SAZB
Flight info
| Callsign | NVA1001 |
|---|---|
| Flight time | 2h 14m |
| Altitude | 35000 |
| Route | PONPI3A PONPI UN525 CBA DCT LYE/N0457F360 DCT AKNOS AKNOS1Q |
| Aircraft | A21N/M-SDE3FGHIRWY/LB1 |
Departure
| Time | 2026-05-07 17:27 |
|---|---|
| Airport | Martín Miguel de Güemes International Airport (SASA) |
Arrival
| Time | 2026-05-07 19:41 |
|---|---|
| Airport | Comandante Espora Airport (SAZB) |
| Time | Latitude | Longitude | Altitude | Speed | Heading |
|---|---|---|---|---|---|
| 2026-05-07 17:17 | -24.84463 | -65.47952 | 4093 ft | 0 kts | 20° |
| 2026-05-07 17:19 | -24.84469 | -65.47954 | 4093 ft | 2 kts | 20° |
| 2026-05-07 17:19 | -24.84483 | -65.47959 | 4093 ft | 2 kts | 20° |
| 2026-05-07 17:19 | -24.84492 | -65.47964 | 4092 ft | 1 kts | 21° |
| 2026-05-07 17:19 | -24.84507 | -65.47966 | 4093 ft | 2 kts | 342° |
| 2026-05-07 17:20 | -24.84520 | -65.47957 | 4092 ft | 2 kts | 307° |
| 2026-05-07 17:20 | -24.84525 | -65.47948 | 4093 ft | 1 kts | 285° |
| 2026-05-07 17:20 | -24.84526 | -65.47941 | 4093 ft | 0 kts | 284° |
| 2026-05-07 17:22 | -24.84523 | -65.47954 | 4092 ft | 3 kts | 286° |
| 2026-05-07 17:22 | -24.84519 | -65.47984 | 4092 ft | 5 kts | 268° |
| 2026-05-07 17:22 | -24.84526 | -65.48033 | 4092 ft | 7 kts | 257° |
| 2026-05-07 17:22 | -24.84542 | -65.48096 | 4093 ft | 11 kts | 252° |
| 2026-05-07 17:23 | -24.84571 | -65.48186 | 4093 ft | 13 kts | 249° |
| 2026-05-07 17:23 | -24.84603 | -65.48283 | 4093 ft | 13 kts | 254° |
| 2026-05-07 17:23 | -24.84659 | -65.48377 | 4093 ft | 17 kts | 220° |
| 2026-05-07 17:23 | -24.84793 | -65.48442 | 4092 ft | 21 kts | 194° |
| 2026-05-07 17:24 | -24.84940 | -65.48475 | 4092 ft | 21 kts | 191° |
| 2026-05-07 17:24 | -24.85082 | -65.48505 | 4092 ft | 20 kts | 190° |
| 2026-05-07 17:24 | -24.85225 | -65.48534 | 4092 ft | 20 kts | 191° |
| 2026-05-07 17:24 | -24.85367 | -65.48566 | 4092 ft | 20 kts | 191° |
| 2026-05-07 17:25 | -24.85506 | -65.48598 | 4092 ft | 20 kts | 195° |
| 2026-05-07 17:25 | -24.85617 | -65.48687 | 4092 ft | 20 kts | 231° |
| 2026-05-07 17:25 | -24.85700 | -65.48810 | 4092 ft | 20 kts | 233° |
| 2026-05-07 17:25 | -24.85766 | -65.48935 | 4092 ft | 11 kts | 242° |
| 2026-05-07 17:26 | -24.85790 | -65.48927 | 4092 ft | 7 kts | 62° |
| 2026-05-07 17:26 | -24.85712 | -65.48814 | 4092 ft | 46 kts | 50° |
| 2026-05-07 17:26 | -24.85364 | -65.48335 | 4093 ft | 111 kts | 53° |
| 2026-05-07 17:26 | -24.84781 | -65.47501 | 4094 ft | 162 kts | 53° |
| 2026-05-07 17:27 | -24.84074 | -65.46491 | 4579 ft | 164 kts | 53° |
| 2026-05-07 17:27 | -24.83384 | -65.45519 | 5105 ft | 164 kts | 53° |
| 2026-05-07 17:27 | -24.82692 | -65.44561 | 5591 ft | 167 kts | 53° |
| 2026-05-07 17:27 | -24.81983 | -65.43584 | 5963 ft | 172 kts | 54° |
| 2026-05-07 17:28 | -24.81205 | -65.42539 | 6143 ft | 180 kts | 53° |
| 2026-05-07 17:28 | -24.80376 | -65.41447 | 6326 ft | 189 kts | 53° |
| 2026-05-07 17:28 | -24.79529 | -65.40314 | 6516 ft | 198 kts | 52° |
| 2026-05-07 17:28 | -24.78637 | -65.39091 | 6713 ft | 207 kts | 53° |
| 2026-05-07 17:29 | -24.77714 | -65.37835 | 6917 ft | 217 kts | 53° |
| 2026-05-07 17:29 | -24.76992 | -65.36383 | 7171 ft | 217 kts | 82° |
| 2026-05-07 17:29 | -24.77200 | -65.34756 | 7372 ft | 223 kts | 121° |
| 2026-05-07 17:29 | -24.78196 | -65.33432 | 7596 ft | 231 kts | 146° |
| 2026-05-07 17:30 | -24.79701 | -65.32787 | 7873 ft | 238 kts | 179° |
| 2026-05-07 17:30 | -24.81307 | -65.33251 | 8171 ft | 246 kts | 216° |
| 2026-05-07 17:30 | -24.82365 | -65.34735 | 8438 ft | 253 kts | 253° |
| 2026-05-07 17:30 | -24.82652 | -65.36668 | 8725 ft | 263 kts | 265° |
| 2026-05-07 17:31 | -24.82868 | -65.38695 | 9016 ft | 273 kts | 262° |
| 2026-05-07 17:31 | -24.83238 | -65.40753 | 9529 ft | 274 kts | 258° |
| 2026-05-07 17:31 | -24.83713 | -65.42800 | 10028 ft | 275 kts | 256° |
| 2026-05-07 17:31 | -24.84253 | -65.44824 | 10501 ft | 278 kts | 252° |
| 2026-05-07 17:32 | -24.85311 | -65.46648 | 10723 ft | 294 kts | 224° |
| 2026-05-07 17:32 | -24.87141 | -65.47752 | 10957 ft | 312 kts | 196° |
| 2026-05-07 17:32 | -24.89352 | -65.47805 | 11191 ft | 327 kts | 173° |
| 2026-05-07 17:32 | -24.91632 | -65.47348 | 11389 ft | 338 kts | 171° |
| 2026-05-07 17:33 | -24.93969 | -65.46874 | 11615 ft | 347 kts | 172° |
| 2026-05-07 17:33 | -24.96368 | -65.46400 | 11965 ft | 352 kts | 172° |
| 2026-05-07 17:33 | -24.98798 | -65.45933 | 12387 ft | 354 kts | 173° |
| 2026-05-07 17:33 | -25.01251 | -65.45469 | 12786 ft | 356 kts | 173° |
| 2026-05-07 17:34 | -25.03703 | -65.45007 | 13115 ft | 360 kts | 173° |
| 2026-05-07 17:34 | -25.06188 | -65.44541 | 13544 ft | 361 kts | 174° |
| 2026-05-07 17:34 | -25.08671 | -65.44074 | 13996 ft | 362 kts | 174° |
| 2026-05-07 17:34 | -25.11169 | -65.43612 | 14400 ft | 363 kts | 174° |
| 2026-05-07 17:35 | -25.13661 | -65.43149 | 14840 ft | 365 kts | 174° |
| 2026-05-07 17:35 | -25.16180 | -65.42680 | 15259 ft | 366 kts | 175° |
| 2026-05-07 17:35 | -25.18704 | -65.42214 | 15668 ft | 367 kts | 175° |
| 2026-05-07 17:35 | -25.21235 | -65.41741 | 16129 ft | 367 kts | 176° |
| 2026-05-07 17:36 | -25.23755 | -65.41272 | 16583 ft | 368 kts | 176° |
| 2026-05-07 17:36 | -25.26291 | -65.40801 | 17025 ft | 369 kts | 177° |
| 2026-05-07 17:36 | -25.28825 | -65.40330 | 17439 ft | 370 kts | 177° |
| 2026-05-07 17:36 | -25.31363 | -65.39857 | 17871 ft | 371 kts | 177° |
| 2026-05-07 17:37 | -25.33937 | -65.39377 | 18334 ft | 371 kts | 178° |
| 2026-05-07 17:37 | -25.36482 | -65.38901 | 18797 ft | 370 kts | 177° |
| 2026-05-07 17:37 | -25.39016 | -65.38427 | 19245 ft | 370 kts | 177° |
| 2026-05-07 17:37 | -25.41580 | -65.37952 | 19651 ft | 371 kts | 178° |
| 2026-05-07 17:38 | -25.44106 | -65.37479 | 20096 ft | 371 kts | 178° |
| 2026-05-07 17:38 | -25.46651 | -65.37002 | 20567 ft | 369 kts | 178° |
| 2026-05-07 17:38 | -25.49209 | -65.36522 | 21042 ft | 368 kts | 178° |
| 2026-05-07 17:38 | -25.51732 | -65.36054 | 21483 ft | 367 kts | 178° |
| 2026-05-07 17:39 | -25.54244 | -65.35579 | 21892 ft | 367 kts | 179° |
| 2026-05-07 17:39 | -25.56746 | -65.35111 | 22267 ft | 367 kts | 179° |
| 2026-05-07 17:39 | -25.59280 | -65.34636 | 22687 ft | 367 kts | 179° |
| 2026-05-07 17:39 | -25.61806 | -65.34167 | 22995 ft | 369 kts | 179° |
| 2026-05-07 17:40 | -25.64351 | -65.33691 | 23345 ft | 370 kts | 178° |
| 2026-05-07 17:40 | -25.66889 | -65.33215 | 23664 ft | 372 kts | 179° |
| 2026-05-07 17:40 | -25.69449 | -65.32732 | 23923 ft | 375 kts | 178° |
| 2026-05-07 17:40 | -25.72030 | -65.32245 | 24208 ft | 377 kts | 179° |
| 2026-05-07 17:41 | -25.74623 | -65.31763 | 24467 ft | 379 kts | 179° |
| 2026-05-07 17:41 | -25.77236 | -65.31274 | 24772 ft | 380 kts | 179° |
| 2026-05-07 17:41 | -25.79856 | -65.30782 | 25009 ft | 383 kts | 179° |
| 2026-05-07 17:41 | -25.82507 | -65.30285 | 25244 ft | 386 kts | 179° |
| 2026-05-07 17:42 | -25.85147 | -65.29787 | 25540 ft | 387 kts | 179° |
| 2026-05-07 17:42 | -25.87825 | -65.29283 | 25790 ft | 389 kts | 179° |
| 2026-05-07 17:42 | -25.90462 | -65.28790 | 26107 ft | 389 kts | 179° |
| 2026-05-07 17:42 | -25.93153 | -65.28284 | 26332 ft | 391 kts | 179° |
| 2026-05-07 17:43 | -25.95858 | -65.27773 | 26529 ft | 394 kts | 179° |
| 2026-05-07 17:43 | -25.98560 | -65.27260 | 26729 ft | 396 kts | 179° |
| 2026-05-07 17:43 | -26.01281 | -65.26747 | 26938 ft | 399 kts | 179° |
| 2026-05-07 17:43 | -26.04012 | -65.26231 | 27228 ft | 398 kts | 179° |
| 2026-05-07 17:44 | -26.06772 | -65.25709 | 27500 ft | 399 kts | 178° |
| 2026-05-07 17:44 | -26.09526 | -65.25186 | 27672 ft | 402 kts | 179° |
| 2026-05-07 17:44 | -26.12306 | -65.24663 | 27799 ft | 406 kts | 179° |
| 2026-05-07 17:44 | -26.15091 | -65.24139 | 27995 ft | 408 kts | 179° |
| 2026-05-07 17:45 | -26.17905 | -65.23607 | 28321 ft | 407 kts | 179° |
| 2026-05-07 17:45 | -26.20680 | -65.23079 | 28529 ft | 409 kts | 179° |
| 2026-05-07 17:45 | -26.23527 | -65.22540 | 28632 ft | 413 kts | 179° |
| 2026-05-07 17:45 | -26.26375 | -65.22004 | 28887 ft | 413 kts | 179° |
| 2026-05-07 17:46 | -26.29189 | -65.21467 | 29148 ft | 414 kts | 179° |
| 2026-05-07 17:46 | -26.32064 | -65.20920 | 29349 ft | 415 kts | 180° |
| 2026-05-07 17:46 | -26.34909 | -65.20383 | 29607 ft | 415 kts | 179° |
| 2026-05-07 17:46 | -26.37763 | -65.19840 | 29805 ft | 416 kts | 179° |
| 2026-05-07 17:47 | -26.40630 | -65.19297 | 30008 ft | 418 kts | 179° |
| 2026-05-07 17:47 | -26.43498 | -65.18750 | 30206 ft | 418 kts | 180° |
| 2026-05-07 17:47 | -26.46349 | -65.18202 | 30428 ft | 418 kts | 179° |
| 2026-05-07 17:47 | -26.49240 | -65.17652 | 30580 ft | 421 kts | 180° |
| 2026-05-07 17:48 | -26.52116 | -65.17107 | 30733 ft | 422 kts | 179° |
| 2026-05-07 17:48 | -26.55057 | -65.16548 | 30968 ft | 422 kts | 179° |
| 2026-05-07 17:48 | -26.57929 | -65.15998 | 31226 ft | 421 kts | 179° |
| 2026-05-07 17:48 | -26.60820 | -65.15444 | 31445 ft | 420 kts | 180° |
| 2026-05-07 17:49 | -26.63701 | -65.14891 | 31648 ft | 420 kts | 180° |
| 2026-05-07 17:49 | -26.66562 | -65.14342 | 31872 ft | 419 kts | 180° |
| 2026-05-07 17:49 | -26.69439 | -65.13790 | 32146 ft | 417 kts | 180° |
| 2026-05-07 17:49 | -26.72302 | -65.13245 | 32391 ft | 415 kts | 180° |
| 2026-05-07 17:50 | -26.75151 | -65.12698 | 32666 ft | 412 kts | 180° |
| 2026-05-07 17:50 | -26.77996 | -65.12152 | 32884 ft | 412 kts | 180° |
| 2026-05-07 17:50 | -26.80795 | -65.11616 | 33096 ft | 411 kts | 180° |
| 2026-05-07 17:50 | -26.83624 | -65.11074 | 33311 ft | 410 kts | 180° |
| 2026-05-07 17:51 | -26.86471 | -65.10529 | 33452 ft | 411 kts | 180° |
| 2026-05-07 17:51 | -26.89311 | -65.09982 | 33650 ft | 411 kts | 180° |
| 2026-05-07 17:51 | -26.92094 | -65.09444 | 33908 ft | 408 kts | 180° |
| 2026-05-07 17:51 | -26.94910 | -65.08895 | 34093 ft | 408 kts | 180° |
| 2026-05-07 17:52 | -26.97725 | -65.08353 | 34246 ft | 408 kts | 180° |
| 2026-05-07 17:52 | -27.00548 | -65.07804 | 34371 ft | 409 kts | 180° |
| 2026-05-07 17:52 | -27.03359 | -65.07258 | 34489 ft | 411 kts | 179° |
| 2026-05-07 17:52 | -27.06197 | -65.06702 | 34633 ft | 412 kts | 180° |
| 2026-05-07 17:53 | -27.08998 | -65.06160 | 34783 ft | 412 kts | 179° |
| 2026-05-07 17:53 | -27.11836 | -65.05607 | 34897 ft | 414 kts | 179° |
| 2026-05-07 17:53 | -27.17564 | -65.04486 | 34909 ft | 416 kts | 180° |
| 2026-05-07 17:54 | -27.23300 | -65.03368 | 34916 ft | 419 kts | 179° |
| 2026-05-07 17:54 | -27.29027 | -65.02245 | 34918 ft | 420 kts | 180° |
| 2026-05-07 17:55 | -27.34807 | -65.01108 | 34912 ft | 417 kts | 180° |
| 2026-05-07 17:55 | -27.40531 | -64.99989 | 34925 ft | 416 kts | 179° |
| 2026-05-07 17:56 | -27.46219 | -64.98872 | 34924 ft | 415 kts | 180° |
| 2026-05-07 17:56 | -27.51878 | -64.97759 | 34924 ft | 413 kts | 180° |
| 2026-05-07 17:57 | -27.56610 | -64.96828 | 34911 ft | 412 kts | 180° |
| 2026-05-07 17:57 | -27.63190 | -64.95532 | 34914 ft | 414 kts | 180° |
| 2026-05-07 17:58 | -27.68873 | -64.94409 | 34903 ft | 411 kts | 180° |
| 2026-05-07 17:58 | -27.74520 | -64.93292 | 34896 ft | 411 kts | 180° |
| 2026-05-07 17:59 | -27.80142 | -64.92249 | 34885 ft | 408 kts | 181° |
| 2026-05-07 17:59 | -27.85760 | -64.91223 | 34871 ft | 406 kts | 181° |
| 2026-05-07 18:00 | -27.91359 | -64.90195 | 34879 ft | 407 kts | 181° |
| 2026-05-07 18:00 | -27.96978 | -64.89159 | 34873 ft | 406 kts | 181° |
| 2026-05-07 18:01 | -28.02577 | -64.88124 | 34881 ft | 406 kts | 181° |
| 2026-05-07 18:01 | -28.08117 | -64.87096 | 34855 ft | 403 kts | 181° |
| 2026-05-07 18:02 | -28.16534 | -64.85538 | 34878 ft | 407 kts | 181° |
| 2026-05-07 18:03 | -28.22103 | -64.84501 | 34878 ft | 405 kts | 181° |
| 2026-05-07 18:03 | -28.27686 | -64.83466 | 34883 ft | 407 kts | 181° |
| 2026-05-07 18:04 | -28.33306 | -64.82418 | 34899 ft | 409 kts | 181° |
| 2026-05-07 18:04 | -28.38918 | -64.81371 | 34879 ft | 409 kts | 180° |
| 2026-05-07 18:05 | -28.44524 | -64.80327 | 34881 ft | 407 kts | 181° |
| 2026-05-07 18:05 | -28.50126 | -64.79275 | 34882 ft | 405 kts | 181° |
| 2026-05-07 18:06 | -28.55713 | -64.78228 | 34882 ft | 407 kts | 181° |
| 2026-05-07 18:06 | -28.61344 | -64.77174 | 34871 ft | 409 kts | 181° |
| 2026-05-07 18:07 | -28.66996 | -64.76047 | 34894 ft | 413 kts | 179° |
| 2026-05-07 18:07 | -28.72625 | -64.74837 | 34868 ft | 413 kts | 179° |
| 2026-05-07 18:08 | -28.78302 | -64.73606 | 34872 ft | 412 kts | 179° |
| 2026-05-07 18:08 | -28.83936 | -64.72388 | 34861 ft | 412 kts | 179° |
| 2026-05-07 18:09 | -28.89593 | -64.71167 | 34855 ft | 413 kts | 179° |
| 2026-05-07 18:09 | -28.95259 | -64.69944 | 34857 ft | 416 kts | 179° |
| 2026-05-07 18:10 | -29.00974 | -64.68707 | 34858 ft | 416 kts | 178° |
| 2026-05-07 18:10 | -29.06647 | -64.67477 | 34875 ft | 416 kts | 178° |
| 2026-05-07 18:11 | -29.12377 | -64.66236 | 34883 ft | 418 kts | 178° |
| 2026-05-07 18:11 | -29.18120 | -64.64992 | 34874 ft | 418 kts | 178° |
| 2026-05-07 18:12 | -29.23850 | -64.63744 | 34879 ft | 420 kts | 178° |
| 2026-05-07 18:12 | -29.29600 | -64.62494 | 34886 ft | 419 kts | 178° |
| 2026-05-07 18:13 | -29.35356 | -64.61240 | 34874 ft | 421 kts | 178° |
| 2026-05-07 18:13 | -29.41141 | -64.59978 | 34877 ft | 423 kts | 178° |
| 2026-05-07 18:14 | -29.46916 | -64.58711 | 34876 ft | 422 kts | 177° |
| 2026-05-07 18:14 | -29.52709 | -64.57438 | 34877 ft | 423 kts | 177° |
| 2026-05-07 18:15 | -29.58467 | -64.56175 | 34874 ft | 424 kts | 177° |
| 2026-05-07 18:15 | -29.64287 | -64.55007 | 34874 ft | 423 kts | 179° |
| 2026-05-07 18:16 | -29.70106 | -64.53938 | 34875 ft | 424 kts | 178° |
| 2026-05-07 18:16 | -29.75945 | -64.52841 | 34865 ft | 425 kts | 178° |
| 2026-05-07 18:17 | -29.81796 | -64.51730 | 34868 ft | 425 kts | 178° |
| 2026-05-07 18:17 | -29.87608 | -64.50622 | 34868 ft | 424 kts | 178° |
| 2026-05-07 18:18 | -29.93448 | -64.49510 | 34863 ft | 425 kts | 178° |
| 2026-05-07 18:18 | -29.99300 | -64.48323 | 34877 ft | 426 kts | 176° |
| 2026-05-07 18:19 | -30.05116 | -64.47080 | 34873 ft | 427 kts | 176° |
| 2026-05-07 18:19 | -30.10987 | -64.45822 | 34881 ft | 428 kts | 176° |
| 2026-05-07 18:20 | -30.16832 | -64.44572 | 34866 ft | 427 kts | 176° |
| 2026-05-07 18:20 | -30.22694 | -64.43317 | 34869 ft | 428 kts | 176° |
| 2026-05-07 18:21 | -30.28540 | -64.42065 | 34872 ft | 425 kts | 176° |
| 2026-05-07 18:21 | -30.34348 | -64.40811 | 34871 ft | 426 kts | 176° |
| 2026-05-07 18:22 | -30.40195 | -64.39557 | 34873 ft | 427 kts | 176° |
| 2026-05-07 18:22 | -30.46060 | -64.38339 | 34874 ft | 426 kts | 176° |
| 2026-05-07 18:23 | -30.51891 | -64.37141 | 34875 ft | 426 kts | 176° |
| 2026-05-07 18:23 | -30.57734 | -64.35928 | 34879 ft | 427 kts | 176° |
| 2026-05-07 18:24 | -30.63601 | -64.34703 | 34881 ft | 427 kts | 175° |
| 2026-05-07 18:24 | -30.69461 | -64.33452 | 34887 ft | 427 kts | 175° |
| 2026-05-07 18:25 | -30.75297 | -64.32215 | 34891 ft | 427 kts | 175° |
| 2026-05-07 18:25 | -30.81138 | -64.30988 | 34885 ft | 426 kts | 175° |
| 2026-05-07 18:26 | -30.86967 | -64.29763 | 34886 ft | 427 kts | 175° |
| 2026-05-07 18:26 | -30.92821 | -64.28535 | 34884 ft | 427 kts | 175° |
| 2026-05-07 18:27 | -30.98656 | -64.27309 | 34879 ft | 427 kts | 175° |
| 2026-05-07 18:27 | -31.04546 | -64.26067 | 34882 ft | 428 kts | 174° |
| 2026-05-07 18:28 | -31.10379 | -64.24840 | 34881 ft | 428 kts | 174° |
| 2026-05-07 18:28 | -31.16249 | -64.23599 | 34878 ft | 427 kts | 175° |
| 2026-05-07 18:29 | -31.22121 | -64.22358 | 34884 ft | 428 kts | 174° |
| 2026-05-07 18:29 | -31.28026 | -64.21111 | 34878 ft | 429 kts | 174° |
| 2026-05-07 18:30 | -31.33894 | -64.19685 | 34880 ft | 430 kts | 171° |
| 2026-05-07 18:30 | -31.39737 | -64.18008 | 34875 ft | 432 kts | 171° |
| 2026-05-07 18:31 | -31.45553 | -64.16322 | 34874 ft | 431 kts | 171° |
| 2026-05-07 18:31 | -31.51394 | -64.14629 | 34872 ft | 431 kts | 171° |
| 2026-05-07 18:32 | -31.57255 | -64.12928 | 34871 ft | 432 kts | 171° |
| 2026-05-07 18:32 | -31.63085 | -64.11234 | 34863 ft | 431 kts | 171° |
| 2026-05-07 18:33 | -31.68972 | -64.09522 | 34858 ft | 433 kts | 170° |
| 2026-05-07 18:33 | -31.74778 | -64.07834 | 34854 ft | 432 kts | 170° |
| 2026-05-07 18:34 | -31.80628 | -64.06129 | 34853 ft | 433 kts | 170° |
| 2026-05-07 18:34 | -31.86455 | -64.04427 | 34860 ft | 431 kts | 170° |
| 2026-05-07 18:35 | -31.92264 | -64.02729 | 34869 ft | 431 kts | 170° |
| 2026-05-07 18:35 | -31.98126 | -64.01015 | 34858 ft | 433 kts | 170° |
| 2026-05-07 18:36 | -32.03952 | -63.99306 | 34852 ft | 434 kts | 170° |
| 2026-05-07 18:36 | -32.09834 | -63.97581 | 34846 ft | 434 kts | 169° |
| 2026-05-07 18:37 | -32.15672 | -63.95870 | 34845 ft | 433 kts | 170° |
| 2026-05-07 18:37 | -32.21552 | -63.94143 | 34843 ft | 434 kts | 170° |
| 2026-05-07 18:38 | -32.27390 | -63.92426 | 34843 ft | 434 kts | 170° |
| 2026-05-07 18:38 | -32.33295 | -63.90685 | 34846 ft | 436 kts | 170° |
| 2026-05-07 18:39 | -32.39149 | -63.88956 | 34846 ft | 434 kts | 170° |
| 2026-05-07 18:39 | -32.45024 | -63.87217 | 34849 ft | 435 kts | 170° |
| 2026-05-07 18:40 | -32.50903 | -63.85475 | 34846 ft | 436 kts | 170° |
| 2026-05-07 18:40 | -32.56780 | -63.83735 | 34847 ft | 436 kts | 170° |
| 2026-05-07 18:41 | -32.62640 | -63.81995 | 34847 ft | 436 kts | 170° |
| 2026-05-07 18:41 | -32.68555 | -63.80233 | 34844 ft | 436 kts | 170° |
| 2026-05-07 18:42 | -32.74416 | -63.78490 | 34846 ft | 436 kts | 170° |
| 2026-05-07 18:42 | -32.80333 | -63.76726 | 34843 ft | 438 kts | 170° |
| 2026-05-07 18:43 | -32.86212 | -63.74971 | 34839 ft | 438 kts | 170° |
| 2026-05-07 18:43 | -32.92135 | -63.73200 | 34841 ft | 439 kts | 170° |
| 2026-05-07 18:44 | -32.98091 | -63.71417 | 34845 ft | 439 kts | 170° |
| 2026-05-07 18:44 | -33.04003 | -63.69643 | 34846 ft | 441 kts | 170° |
| 2026-05-07 18:45 | -33.09928 | -63.67865 | 34840 ft | 440 kts | 170° |
| 2026-05-07 18:45 | -33.15910 | -63.66070 | 34835 ft | 441 kts | 170° |
| 2026-05-07 18:46 | -33.21817 | -63.64294 | 34838 ft | 439 kts | 170° |
| 2026-05-07 18:46 | -33.27758 | -63.62507 | 34832 ft | 442 kts | 170° |
| 2026-05-07 18:47 | -33.33725 | -63.60706 | 34830 ft | 443 kts | 170° |
| 2026-05-07 18:47 | -33.39698 | -63.58899 | 34831 ft | 441 kts | 170° |
| 2026-05-07 18:48 | -33.45652 | -63.57097 | 34830 ft | 442 kts | 170° |
| 2026-05-07 18:48 | -33.51634 | -63.55281 | 34825 ft | 444 kts | 170° |
| 2026-05-07 18:49 | -33.57624 | -63.53463 | 34829 ft | 444 kts | 170° |
| 2026-05-07 18:49 | -33.63590 | -63.51648 | 34822 ft | 446 kts | 170° |
| 2026-05-07 18:50 | -33.69599 | -63.49816 | 34814 ft | 447 kts | 170° |
| 2026-05-07 18:50 | -33.75633 | -63.47975 | 34817 ft | 447 kts | 170° |
| 2026-05-07 18:51 | -33.81640 | -63.46139 | 34816 ft | 446 kts | 170° |
| 2026-05-07 18:51 | -33.87695 | -63.44284 | 34811 ft | 448 kts | 170° |
| 2026-05-07 18:52 | -33.93755 | -63.42425 | 34816 ft | 449 kts | 169° |
| 2026-05-07 18:52 | -33.99766 | -63.40575 | 34811 ft | 448 kts | 169° |
| 2026-05-07 18:53 | -34.05819 | -63.38706 | 34816 ft | 449 kts | 170° |
| 2026-05-07 18:53 | -34.11880 | -63.36884 | 34818 ft | 447 kts | 172° |
| 2026-05-07 18:54 | -34.18019 | -63.35695 | 34816 ft | 444 kts | 178° |
| 2026-05-07 18:54 | -34.24150 | -63.34967 | 34815 ft | 443 kts | 178° |
| 2026-05-07 18:55 | -34.30254 | -63.34238 | 34810 ft | 443 kts | 178° |
| 2026-05-07 18:55 | -34.36406 | -63.33500 | 34804 ft | 444 kts | 178° |
| 2026-05-07 18:56 | -34.42587 | -63.32765 | 34824 ft | 446 kts | 178° |
| 2026-05-07 18:56 | -34.45665 | -63.32400 | 35116 ft | 442 kts | 178° |
| 2026-05-07 18:56 | -34.48675 | -63.32039 | 35495 ft | 436 kts | 178° |
| 2026-05-07 18:56 | -34.51710 | -63.31677 | 35677 ft | 436 kts | 178° |
| 2026-05-07 18:57 | -34.54728 | -63.31320 | 35758 ft | 437 kts | 178° |
| 2026-05-07 18:57 | -34.57733 | -63.30965 | 35572 ft | 439 kts | 178° |
| 2026-05-07 18:57 | -34.60805 | -63.30600 | 35701 ft | 438 kts | 178° |
| 2026-05-07 18:58 | -34.66888 | -63.29878 | 35794 ft | 441 kts | 178° |
| 2026-05-07 18:58 | -34.72968 | -63.29153 | 35776 ft | 441 kts | 178° |
| 2026-05-07 18:59 | -34.79105 | -63.28421 | 35801 ft | 441 kts | 178° |
| 2026-05-07 18:59 | -34.85199 | -63.27693 | 35811 ft | 440 kts | 178° |
| 2026-05-07 19:00 | -34.91264 | -63.26967 | 35820 ft | 439 kts | 178° |
| 2026-05-07 19:00 | -34.97326 | -63.26241 | 35791 ft | 439 kts | 178° |
| 2026-05-07 19:01 | -35.03412 | -63.25510 | 35809 ft | 439 kts | 178° |
| 2026-05-07 19:01 | -35.09491 | -63.24783 | 35814 ft | 441 kts | 177° |
| 2026-05-07 19:02 | -35.15573 | -63.24049 | 35842 ft | 440 kts | 178° |
| 2026-05-07 19:02 | -35.21682 | -63.23313 | 35820 ft | 438 kts | 178° |
| 2026-05-07 19:03 | -35.27720 | -63.22584 | 35775 ft | 438 kts | 178° |
| 2026-05-07 19:03 | -35.33809 | -63.21849 | 35785 ft | 438 kts | 178° |
| 2026-05-07 19:04 | -35.39836 | -63.21119 | 35789 ft | 437 kts | 178° |
| 2026-05-07 19:04 | -35.45914 | -63.20381 | 35769 ft | 437 kts | 178° |
| 2026-05-07 19:05 | -35.51940 | -63.19650 | 35778 ft | 437 kts | 177° |
| 2026-05-07 19:05 | -35.57982 | -63.18914 | 35776 ft | 436 kts | 178° |
| 2026-05-07 19:06 | -35.64005 | -63.18181 | 35783 ft | 436 kts | 178° |
| 2026-05-07 19:06 | -35.73082 | -63.17075 | 35785 ft | 438 kts | 177° |
| 2026-05-07 19:07 | -35.79151 | -63.16332 | 35916 ft | 440 kts | 177° |
| 2026-05-07 19:07 | -35.85225 | -63.15587 | 35817 ft | 436 kts | 177° |
| 2026-05-07 19:08 | -35.91233 | -63.14849 | 35782 ft | 436 kts | 177° |
| 2026-05-07 19:08 | -35.97254 | -63.14109 | 35783 ft | 435 kts | 177° |
| 2026-05-07 19:09 | -36.03293 | -63.13367 | 35780 ft | 434 kts | 177° |
| 2026-05-07 19:09 | -36.09306 | -63.12624 | 35772 ft | 433 kts | 177° |
| 2026-05-07 19:10 | -36.15037 | -63.11919 | 35768 ft | 434 kts | 177° |
| 2026-05-07 19:10 | -36.21063 | -63.11176 | 35764 ft | 435 kts | 177° |
| 2026-05-07 19:11 | -36.27067 | -63.10433 | 35772 ft | 436 kts | 177° |
| 2026-05-07 19:11 | -36.33110 | -63.09683 | 35775 ft | 435 kts | 177° |
| 2026-05-07 19:12 | -36.39131 | -63.08937 | 35767 ft | 436 kts | 177° |
| 2026-05-07 19:12 | -36.45147 | -63.08186 | 35778 ft | 435 kts | 177° |
| 2026-05-07 19:13 | -36.51200 | -63.07435 | 35765 ft | 436 kts | 177° |
| 2026-05-07 19:13 | -36.57263 | -63.06678 | 35768 ft | 437 kts | 177° |
| 2026-05-07 19:14 | -36.63307 | -63.05921 | 35769 ft | 438 kts | 177° |
| 2026-05-07 19:14 | -36.69370 | -63.05164 | 35442 ft | 440 kts | 177° |
| 2026-05-07 19:15 | -36.72420 | -63.04782 | 35187 ft | 438 kts | 177° |
| 2026-05-07 19:15 | -36.75417 | -63.04405 | 34948 ft | 433 kts | 177° |
| 2026-05-07 19:15 | -36.78388 | -63.04030 | 34696 ft | 430 kts | 177° |
| 2026-05-07 19:15 | -36.81369 | -63.03653 | 34362 ft | 427 kts | 177° |
| 2026-05-07 19:16 | -36.84311 | -63.03283 | 33926 ft | 428 kts | 177° |
| 2026-05-07 19:16 | -36.87296 | -63.02910 | 33418 ft | 429 kts | 177° |
| 2026-05-07 19:16 | -36.90250 | -63.02536 | 32863 ft | 429 kts | 177° |
| 2026-05-07 19:16 | -36.93213 | -63.02162 | 32320 ft | 428 kts | 177° |
| 2026-05-07 19:17 | -36.96159 | -63.01790 | 31781 ft | 427 kts | 177° |
| 2026-05-07 19:17 | -36.99123 | -63.01416 | 31240 ft | 427 kts | 178° |
| 2026-05-07 19:17 | -37.02069 | -63.01041 | 30691 ft | 425 kts | 177° |
| 2026-05-07 19:17 | -37.04972 | -63.00674 | 30137 ft | 425 kts | 178° |
| 2026-05-07 19:18 | -37.07910 | -63.00303 | 29562 ft | 423 kts | 178° |
| 2026-05-07 19:18 | -37.10830 | -62.99935 | 29141 ft | 416 kts | 178° |
| 2026-05-07 19:18 | -37.13694 | -62.99573 | 28785 ft | 410 kts | 177° |
| 2026-05-07 19:18 | -37.16494 | -62.99219 | 28441 ft | 403 kts | 177° |
| 2026-05-07 19:19 | -37.19270 | -62.98865 | 28034 ft | 399 kts | 177° |
| 2026-05-07 19:19 | -37.21997 | -62.98518 | 27599 ft | 396 kts | 178° |
| 2026-05-07 19:19 | -37.24738 | -62.98170 | 27099 ft | 395 kts | 177° |
| 2026-05-07 19:19 | -37.27462 | -62.97825 | 26598 ft | 393 kts | 177° |
| 2026-05-07 19:20 | -37.30184 | -62.97478 | 26105 ft | 392 kts | 178° |
| 2026-05-07 19:20 | -37.32886 | -62.97135 | 25600 ft | 392 kts | 177° |
| 2026-05-07 19:20 | -37.35565 | -62.96794 | 25123 ft | 390 kts | 177° |
| 2026-05-07 19:20 | -37.38269 | -62.96449 | 24632 ft | 390 kts | 177° |
| 2026-05-07 19:21 | -37.40977 | -62.96102 | 24114 ft | 390 kts | 177° |
| 2026-05-07 19:21 | -37.43687 | -62.95755 | 23557 ft | 391 kts | 177° |
| 2026-05-07 19:21 | -37.46370 | -62.95412 | 23044 ft | 389 kts | 177° |
| 2026-05-07 19:21 | -37.49049 | -62.95069 | 22573 ft | 386 kts | 177° |
| 2026-05-07 19:22 | -37.51717 | -62.94727 | 22123 ft | 383 kts | 177° |
| 2026-05-07 19:22 | -37.54320 | -62.94394 | 21687 ft | 379 kts | 177° |
| 2026-05-07 19:22 | -37.56957 | -62.94054 | 21252 ft | 376 kts | 177° |
| 2026-05-07 19:22 | -37.59537 | -62.93723 | 20833 ft | 373 kts | 177° |
| 2026-05-07 19:23 | -37.62090 | -62.93395 | 20396 ft | 370 kts | 177° |
| 2026-05-07 19:23 | -37.64643 | -62.93066 | 19965 ft | 367 kts | 177° |
| 2026-05-07 19:23 | -37.67204 | -62.92736 | 19520 ft | 365 kts | 177° |
| 2026-05-07 19:23 | -37.69699 | -62.92414 | 19104 ft | 362 kts | 177° |
| 2026-05-07 19:24 | -37.72188 | -62.92093 | 18689 ft | 360 kts | 177° |
| 2026-05-07 19:24 | -37.74673 | -62.91772 | 18276 ft | 357 kts | 177° |
| 2026-05-07 19:24 | -37.77119 | -62.91457 | 17882 ft | 354 kts | 177° |
| 2026-05-07 19:24 | -37.79580 | -62.91140 | 17482 ft | 351 kts | 177° |
| 2026-05-07 19:25 | -37.81990 | -62.90828 | 17092 ft | 349 kts | 177° |
| 2026-05-07 19:25 | -37.84389 | -62.90517 | 16709 ft | 346 kts | 177° |
| 2026-05-07 19:25 | -37.86766 | -62.90208 | 16336 ft | 343 kts | 177° |
| 2026-05-07 19:25 | -37.89134 | -62.89901 | 15955 ft | 340 kts | 177° |
| 2026-05-07 19:26 | -37.91485 | -62.89596 | 15580 ft | 337 kts | 176° |
| 2026-05-07 19:26 | -37.93794 | -62.89296 | 15207 ft | 334 kts | 176° |
| 2026-05-07 19:26 | -37.96116 | -62.88995 | 14841 ft | 331 kts | 176° |
| 2026-05-07 19:26 | -37.98379 | -62.88653 | 14479 ft | 330 kts | 171° |
| 2026-05-07 19:27 | -38.00581 | -62.87761 | 14111 ft | 330 kts | 158° |
| 2026-05-07 19:27 | -38.02541 | -62.86257 | 13747 ft | 331 kts | 147° |
| 2026-05-07 19:27 | -38.04361 | -62.84517 | 13389 ft | 329 kts | 145° |
| 2026-05-07 19:27 | -38.06165 | -62.82737 | 13013 ft | 327 kts | 145° |
| 2026-05-07 19:28 | -38.07950 | -62.80979 | 12633 ft | 325 kts | 145° |
| 2026-05-07 19:28 | -38.09726 | -62.79237 | 12274 ft | 322 kts | 145° |
| 2026-05-07 19:28 | -38.11484 | -62.77519 | 11919 ft | 319 kts | 146° |
| 2026-05-07 19:28 | -38.13245 | -62.75814 | 11558 ft | 317 kts | 146° |
| 2026-05-07 19:29 | -38.14995 | -62.74118 | 11191 ft | 314 kts | 146° |
| 2026-05-07 19:29 | -38.16719 | -62.72445 | 10827 ft | 312 kts | 146° |
| 2026-05-07 19:29 | -38.18440 | -62.70772 | 10470 ft | 310 kts | 146° |
| 2026-05-07 19:29 | -38.20142 | -62.69115 | 10102 ft | 308 kts | 146° |
| 2026-05-07 19:30 | -38.21847 | -62.67453 | 9806 ft | 302 kts | 146° |
| 2026-05-07 19:30 | -38.23451 | -62.65884 | 9755 ft | 282 kts | 146° |
| 2026-05-07 19:30 | -38.24989 | -62.64382 | 9709 ft | 280 kts | 146° |
| 2026-05-07 19:30 | -38.26546 | -62.62862 | 9359 ft | 280 kts | 146° |
| 2026-05-07 19:31 | -38.28078 | -62.61367 | 9028 ft | 278 kts | 146° |
| 2026-05-07 19:31 | -38.29614 | -62.59863 | 8699 ft | 276 kts | 147° |
| 2026-05-07 19:31 | -38.31121 | -62.58390 | 8377 ft | 274 kts | 147° |
| 2026-05-07 19:31 | -38.32635 | -62.56908 | 8061 ft | 271 kts | 147° |
| 2026-05-07 19:32 | -38.34103 | -62.55469 | 7754 ft | 269 kts | 147° |
| 2026-05-07 19:32 | -38.35582 | -62.54019 | 7446 ft | 267 kts | 147° |
| 2026-05-07 19:32 | -38.37052 | -62.52581 | 7136 ft | 264 kts | 147° |
| 2026-05-07 19:32 | -38.38516 | -62.51147 | 6817 ft | 263 kts | 147° |
| 2026-05-07 19:33 | -38.39941 | -62.49748 | 6506 ft | 261 kts | 147° |
| 2026-05-07 19:33 | -38.41380 | -62.48333 | 6201 ft | 258 kts | 148° |
| 2026-05-07 19:33 | -38.42784 | -62.46949 | 5897 ft | 256 kts | 148° |
| 2026-05-07 19:33 | -38.44183 | -62.45571 | 5603 ft | 253 kts | 148° |
| 2026-05-07 19:34 | -38.45576 | -62.44202 | 5302 ft | 251 kts | 149° |
| 2026-05-07 19:34 | -38.46959 | -62.42842 | 4997 ft | 249 kts | 149° |
| 2026-05-07 19:34 | -38.48318 | -62.41501 | 4703 ft | 248 kts | 149° |
| 2026-05-07 19:34 | -38.49686 | -62.40154 | 4403 ft | 246 kts | 150° |
| 2026-05-07 19:35 | -38.51017 | -62.38841 | 4104 ft | 244 kts | 150° |
| 2026-05-07 19:35 | -38.52356 | -62.37521 | 3813 ft | 242 kts | 150° |
| 2026-05-07 19:35 | -38.53697 | -62.36200 | 3540 ft | 239 kts | 151° |
| 2026-05-07 19:35 | -38.54941 | -62.34962 | 3376 ft | 219 kts | 150° |
| 2026-05-07 19:36 | -38.56145 | -62.33762 | 3336 ft | 218 kts | 151° |
| 2026-05-07 19:36 | -38.57272 | -62.32426 | 3087 ft | 230 kts | 131° |
| 2026-05-07 19:36 | -38.57697 | -62.30393 | 2965 ft | 250 kts | 92° |
| 2026-05-07 19:36 | -38.57297 | -62.28198 | 2885 ft | 260 kts | 78° |
| 2026-05-07 19:37 | -38.56747 | -62.26004 | 2767 ft | 261 kts | 77° |
| 2026-05-07 19:37 | -38.56191 | -62.23774 | 2595 ft | 261 kts | 78° |
| 2026-05-07 19:37 | -38.55877 | -62.21560 | 2197 ft | 244 kts | 103° |
| 2026-05-07 19:37 | -38.56411 | -62.19618 | 2149 ft | 224 kts | 136° |
| 2026-05-07 19:38 | -38.57601 | -62.18472 | 2152 ft | 208 kts | 170° |
| 2026-05-07 19:38 | -38.59005 | -62.18289 | 2163 ft | 201 kts | 187° |
| 2026-05-07 19:38 | -38.60406 | -62.18376 | 2176 ft | 201 kts | 188° |
| 2026-05-07 19:38 | -38.61804 | -62.18495 | 2038 ft | 202 kts | 188° |
| 2026-05-07 19:39 | -38.63226 | -62.18521 | 1794 ft | 204 kts | 181° |
| 2026-05-07 19:39 | -38.64635 | -62.18266 | 1550 ft | 204 kts | 174° |
| 2026-05-07 19:39 | -38.65978 | -62.17865 | 1325 ft | 196 kts | 170° |
| 2026-05-07 19:39 | -38.67252 | -62.17382 | 1165 ft | 181 kts | 169° |
| 2026-05-07 19:40 | -38.68395 | -62.16945 | 942 ft | 166 kts | 169° |
| 2026-05-07 19:40 | -38.69455 | -62.16550 | 705 ft | 151 kts | 171° |
| 2026-05-07 19:40 | -38.70453 | -62.16181 | 507 ft | 145 kts | 171° |
| 2026-05-07 19:40 | -38.71421 | -62.15823 | 329 ft | 144 kts | 168° |
| 2026-05-07 19:41 | -38.72311 | -62.15506 | 253 ft | 102 kts | 161° |
| 2026-05-07 19:41 | -38.72713 | -62.15345 | 248 ft | 31 kts | 164° |
| 2026-05-07 19:41 | -38.72890 | -62.15342 | 245 ft | 18 kts | 263° |
| 2026-05-07 19:41 | -38.72898 | -62.15404 | 246 ft | 4 kts | 223° |
| 2026-05-07 19:42 | -38.72915 | -62.15425 | 246 ft | 2 kts | 224° |
| 2026-05-07 19:42 | -38.72922 | -62.15434 | 246 ft | 0 kts | 223° |
| 2026-05-07 19:42 | -38.72930 | -62.15442 | 246 ft | 7 kts | 220° |
| 2026-05-07 19:42 | -38.72985 | -62.15521 | 246 ft | 12 kts | 248° |
| 2026-05-07 19:43 | -38.72995 | -62.15631 | 246 ft | 13 kts | 266° |
| 2026-05-07 19:43 | -38.72996 | -62.15744 | 247 ft | 12 kts | 271° |
| 2026-05-07 19:43 | -38.73029 | -62.15825 | 248 ft | 11 kts | 201° |
| 2026-05-07 19:43 | -38.73109 | -62.15841 | 247 ft | 12 kts | 185° |
| 2026-05-07 19:44 | -38.73195 | -62.15809 | 245 ft | 13 kts | 136° |
| 2026-05-07 19:44 | -38.73259 | -62.15763 | 244 ft | 0 kts | 181° |
| 2026-05-07 19:44 | -38.73260 | -62.15763 | 244 ft | 0 kts | 181° |